sensor_id;sensor_type;location;lat;lon;timestamp;P1;durP1;ratioP1;P2;durP2;ratioP2
51800;SDS011;37855;53.204;6.568;2023-05-07T00:01:46;25.35;;;15.70;;
51800;SDS011;37855;53.204;6.568;2023-05-07T00:04:11;28.00;;;17.42;;
51800;SDS011;37855;53.204;6.568;2023-05-07T00:06:38;29.00;;;18.00;;
51800;SDS011;37855;53.204;6.568;2023-05-07T00:09:04;25.75;;;16.67;;
51800;SDS011;37855;53.204;6.568;2023-05-07T00:11:30;28.55;;;17.75;;
51800;SDS011;37855;53.204;6.568;2023-05-07T00:13:56;28.95;;;18.02;;
51800;SDS011;37855;53.204;6.568;2023-05-07T00:16:22;26.10;;;16.53;;
51800;SDS011;37855;53.204;6.568;2023-05-07T00:18:47;30.45;;;18.23;;
51800;SDS011;37855;53.204;6.568;2023-05-07T00:21:13;26.23;;;17.00;;
51800;SDS011;37855;53.204;6.568;2023-05-07T00:23:39;27.17;;;17.77;;
51800;SDS011;37855;53.204;6.568;2023-05-07T00:26:04;26.03;;;17.53;;
51800;SDS011;37855;53.204;6.568;2023-05-07T00:28:30;26.80;;;17.07;;
51800;SDS011;37855;53.204;6.568;2023-05-07T00:30:56;25.02;;;16.77;;
51800;SDS011;37855;53.204;6.568;2023-05-07T00:33:22;28.05;;;17.33;;
51800;SDS011;37855;53.204;6.568;2023-05-07T00:35:47;26.10;;;17.07;;
51800;SDS011;37855;53.204;6.568;2023-05-07T00:38:13;28.90;;;17.85;;
51800;SDS011;37855;53.204;6.568;2023-05-07T00:40:39;27.13;;;17.50;;
51800;SDS011;37855;53.204;6.568;2023-05-07T00:43:05;27.03;;;17.40;;
51800;SDS011;37855;53.204;6.568;2023-05-07T00:45:32;27.90;;;17.50;;
51800;SDS011;37855;53.204;6.568;2023-05-07T00:48:01;27.23;;;17.45;;
51800;SDS011;37855;53.204;6.568;2023-05-07T00:50:28;25.30;;;17.13;;
51800;SDS011;37855;53.204;6.568;2023-05-07T00:52:54;30.70;;;17.92;;
51800;SDS011;37855;53.204;6.568;2023-05-07T00:55:21;28.98;;;18.05;;
51800;SDS011;37855;53.204;6.568;2023-05-07T00:57:48;26.77;;;17.35;;
51800;SDS011;37855;53.204;6.568;2023-05-07T01:00:15;27.25;;;17.45;;
51800;SDS011;37855;53.204;6.568;2023-05-07T01:02:41;27.63;;;17.87;;
51800;SDS011;37855;53.204;6.568;2023-05-07T01:05:08;26.98;;;17.67;;
51800;SDS011;37855;53.204;6.568;2023-05-07T01:07:36;27.95;;;17.27;;
51800;SDS011;37855;53.204;6.568;2023-05-07T01:10:04;25.42;;;17.02;;
51800;SDS011;37855;53.204;6.568;2023-05-07T01:12:31;30.35;;;18.55;;
51800;SDS011;37855;53.204;6.568;2023-05-07T01:14:58;26.23;;;17.43;;
51800;SDS011;37855;53.204;6.568;2023-05-07T01:17:23;27.73;;;17.83;;
51800;SDS011;37855;53.204;6.568;2023-05-07T01:19:49;29.17;;;18.98;;
51800;SDS011;37855;53.204;6.568;2023-05-07T01:22:16;30.40;;;18.43;;
51800;SDS011;37855;53.204;6.568;2023-05-07T01:25:10;30.52;;;19.75;;
51800;SDS011;37855;53.204;6.568;2023-05-07T01:27:36;28.88;;;18.65;;
51800;SDS011;37855;53.204;6.568;2023-05-07T01:30:05;30.00;;;19.92;;
51800;SDS011;37855;53.204;6.568;2023-05-07T01:32:51;27.47;;;19.23;;
51800;SDS011;37855;53.204;6.568;2023-05-07T01:35:22;30.95;;;19.50;;
51800;SDS011;37855;53.204;6.568;2023-05-07T01:37:51;28.70;;;19.35;;
51800;SDS011;37855;53.204;6.568;2023-05-07T01:40:18;30.05;;;19.45;;
51800;SDS011;37855;53.204;6.568;2023-05-07T01:42:44;28.25;;;19.50;;
51800;SDS011;37855;53.204;6.568;2023-05-07T01:45:10;30.07;;;19.03;;
51800;SDS011;37855;53.204;6.568;2023-05-07T01:47:37;26.42;;;17.83;;
51800;SDS011;37855;53.204;6.568;2023-05-07T01:50:05;29.25;;;19.30;;
51800;SDS011;37855;53.204;6.568;2023-05-07T01:52:31;29.13;;;17.95;;
51800;SDS011;37855;53.204;6.568;2023-05-07T01:54:57;30.10;;;18.00;;
51800;SDS011;37855;53.204;6.568;2023-05-07T01:57:22;28.85;;;18.40;;
51800;SDS011;37855;53.204;6.568;2023-05-07T01:59:48;30.30;;;19.20;;
51800;SDS011;37855;53.204;6.568;2023-05-07T02:02:14;27.17;;;17.87;;
51800;SDS011;37855;53.204;6.568;2023-05-07T02:04:41;29.80;;;19.05;;
51800;SDS011;37855;53.204;6.568;2023-05-07T02:07:06;30.25;;;18.92;;
51800;SDS011;37855;53.204;6.568;2023-05-07T02:09:32;28.03;;;17.97;;
51800;SDS011;37855;53.204;6.568;2023-05-07T02:11:58;28.55;;;17.75;;
51800;SDS011;37855;53.204;6.568;2023-05-07T02:14:23;29.33;;;18.20;;
51800;SDS011;37855;53.204;6.568;2023-05-07T02:16:51;30.73;;;18.58;;
51800;SDS011;37855;53.204;6.568;2023-05-07T02:19:16;31.75;;;19.30;;
51800;SDS011;37855;53.204;6.568;2023-05-07T02:21:46;28.07;;;18.40;;
51800;SDS011;37855;53.204;6.568;2023-05-07T02:24:12;29.35;;;18.40;;
51800;SDS011;37855;53.204;6.568;2023-05-07T02:26:41;29.08;;;18.88;;
51800;SDS011;37855;53.204;6.568;2023-05-07T02:29:08;31.55;;;18.92;;
51800;SDS011;37855;53.204;6.568;2023-05-07T02:31:33;31.07;;;18.57;;
51800;SDS011;37855;53.204;6.568;2023-05-07T02:33:59;35.08;;;20.77;;
51800;SDS011;37855;53.204;6.568;2023-05-07T02:36:25;33.00;;;20.45;;
51800;SDS011;37855;53.204;6.568;2023-05-07T02:38:54;29.93;;;18.87;;
51800;SDS011;37855;53.204;6.568;2023-05-07T02:41:20;32.50;;;19.10;;
51800;SDS011;37855;53.204;6.568;2023-05-07T02:43:46;30.25;;;19.73;;
51800;SDS011;37855;53.204;6.568;2023-05-07T02:46:11;31.77;;;18.10;;
51800;SDS011;37855;53.204;6.568;2023-05-07T02:48:37;28.65;;;18.40;;
51800;SDS011;37855;53.204;6.568;2023-05-07T02:51:03;30.00;;;19.13;;
51800;SDS011;37855;53.204;6.568;2023-05-07T02:53:30;35.42;;;20.38;;
51800;SDS011;37855;53.204;6.568;2023-05-07T02:55:56;28.98;;;18.42;;
51800;SDS011;37855;53.204;6.568;2023-05-07T02:58:23;34.10;;;20.90;;
51800;SDS011;37855;53.204;6.568;2023-05-07T03:00:49;32.47;;;20.38;;
51800;SDS011;37855;53.204;6.568;2023-05-07T03:03:14;34.40;;;20.67;;
51800;SDS011;37855;53.204;6.568;2023-05-07T03:05:40;33.43;;;20.73;;
51800;SDS011;37855;53.204;6.568;2023-05-07T03:08:06;33.75;;;21.08;;
51800;SDS011;37855;53.204;6.568;2023-05-07T03:10:32;32.88;;;20.75;;
51800;SDS011;37855;53.204;6.568;2023-05-07T03:12:58;29.40;;;18.83;;
51800;SDS011;37855;53.204;6.568;2023-05-07T03:15:24;29.35;;;18.70;;
51800;SDS011;37855;53.204;6.568;2023-05-07T03:17:50;31.67;;;19.52;;
51800;SDS011;37855;53.204;6.568;2023-05-07T03:20:16;31.77;;;19.47;;
51800;SDS011;37855;53.204;6.568;2023-05-07T03:22:42;31.60;;;19.83;;
51800;SDS011;37855;53.204;6.568;2023-05-07T03:25:08;29.07;;;19.53;;
51800;SDS011;37855;53.204;6.568;2023-05-07T03:27:34;30.58;;;19.15;;
51800;SDS011;37855;53.204;6.568;2023-05-07T03:30:00;31.10;;;19.95;;
51800;SDS011;37855;53.204;6.568;2023-05-07T03:32:26;32.25;;;19.33;;
51800;SDS011;37855;53.204;6.568;2023-05-07T03:34:51;33.10;;;19.97;;
51800;SDS011;37855;53.204;6.568;2023-05-07T03:37:17;31.90;;;19.77;;
51800;SDS011;37855;53.204;6.568;2023-05-07T03:39:46;32.30;;;19.63;;
51800;SDS011;37855;53.204;6.568;2023-05-07T03:42:12;33.70;;;19.58;;
51800;SDS011;37855;53.204;6.568;2023-05-07T03:44:38;30.45;;;19.98;;
51800;SDS011;37855;53.204;6.568;2023-05-07T03:47:03;31.57;;;19.90;;
51800;SDS011;37855;53.204;6.568;2023-05-07T03:49:29;30.83;;;19.85;;
51800;SDS011;37855;53.204;6.568;2023-05-07T03:51:55;32.88;;;20.33;;
51800;SDS011;37855;53.204;6.568;2023-05-07T03:54:22;31.67;;;20.30;;
51800;SDS011;37855;53.204;6.568;2023-05-07T03:56:47;34.08;;;20.83;;
51800;SDS011;37855;53.204;6.568;2023-05-07T03:59:13;31.67;;;19.70;;
51800;SDS011;37855;53.204;6.568;2023-05-07T04:01:39;33.58;;;21.08;;
51800;SDS011;37855;53.204;6.568;2023-05-07T04:04:05;32.60;;;20.57;;
51800;SDS011;37855;53.204;6.568;2023-05-07T04:06:31;35.25;;;20.40;;
51800;SDS011;37855;53.204;6.568;2023-05-07T04:08:56;32.08;;;21.17;;
51800;SDS011;37855;53.204;6.568;2023-05-07T04:11:23;33.77;;;20.37;;
51800;SDS011;37855;53.204;6.568;2023-05-07T04:13:48;34.97;;;19.95;;
51800;SDS011;37855;53.204;6.568;2023-05-07T04:16:14;33.77;;;20.43;;
51800;SDS011;37855;53.204;6.568;2023-05-07T04:18:40;32.08;;;20.40;;
51800;SDS011;37855;53.204;6.568;2023-05-07T04:21:13;31.88;;;20.13;;
51800;SDS011;37855;53.204;6.568;2023-05-07T04:23:40;34.67;;;20.00;;
51800;SDS011;37855;53.204;6.568;2023-05-07T04:26:05;32.47;;;21.00;;
51800;SDS011;37855;53.204;6.568;2023-05-07T04:28:32;33.50;;;20.48;;
51800;SDS011;37855;53.204;6.568;2023-05-07T04:30:57;31.50;;;20.33;;
51800;SDS011;37855;53.204;6.568;2023-05-07T04:33:26;32.88;;;21.42;;
51800;SDS011;37855;53.204;6.568;2023-05-07T04:35:51;35.85;;;21.80;;
51800;SDS011;37855;53.204;6.568;2023-05-07T04:38:17;30.97;;;20.47;;
51800;SDS011;37855;53.204;6.568;2023-05-07T04:40:43;30.60;;;19.75;;
51800;SDS011;37855;53.204;6.568;2023-05-07T04:43:09;28.73;;;18.08;;
51800;SDS011;37855;53.204;6.568;2023-05-07T04:45:35;26.40;;;17.30;;
51800;SDS011;37855;53.204;6.568;2023-05-07T04:48:01;29.42;;;18.77;;
51800;SDS011;37855;53.204;6.568;2023-05-07T04:50:27;27.27;;;17.92;;
51800;SDS011;37855;53.204;6.568;2023-05-07T04:52:53;28.63;;;18.33;;
51800;SDS011;37855;53.204;6.568;2023-05-07T04:55:18;28.85;;;17.58;;
51800;SDS011;37855;53.204;6.568;2023-05-07T04:57:44;29.30;;;17.53;;
51800;SDS011;37855;53.204;6.568;2023-05-07T05:00:10;28.75;;;17.92;;
51800;SDS011;37855;53.204;6.568;2023-05-07T05:02:39;28.73;;;18.20;;
51800;SDS011;37855;53.204;6.568;2023-05-07T05:05:06;28.47;;;18.10;;
51800;SDS011;37855;53.204;6.568;2023-05-07T05:07:32;31.85;;;19.70;;
51800;SDS011;37855;53.204;6.568;2023-05-07T05:09:58;28.75;;;18.63;;
51800;SDS011;37855;53.204;6.568;2023-05-07T05:12:23;28.27;;;18.40;;
51800;SDS011;37855;53.204;6.568;2023-05-07T05:14:49;28.55;;;18.70;;
51800;SDS011;37855;53.204;6.568;2023-05-07T05:17:15;28.07;;;17.67;;
51800;SDS011;37855;53.204;6.568;2023-05-07T05:19:40;28.58;;;18.27;;
51800;SDS011;37855;53.204;6.568;2023-05-07T05:22:06;25.60;;;17.33;;
51800;SDS011;37855;53.204;6.568;2023-05-07T05:24:32;28.27;;;17.98;;
51800;SDS011;37855;53.204;6.568;2023-05-07T05:26:57;30.27;;;17.93;;
51800;SDS011;37855;53.204;6.568;2023-05-07T05:29:26;27.48;;;17.75;;
51800;SDS011;37855;53.204;6.568;2023-05-07T05:31:51;27.10;;;17.50;;
51800;SDS011;37855;53.204;6.568;2023-05-07T05:34:17;27.27;;;17.73;;
51800;SDS011;37855;53.204;6.568;2023-05-07T05:36:44;27.00;;;17.48;;
51800;SDS011;37855;53.204;6.568;2023-05-07T05:39:10;26.07;;;17.73;;
51800;SDS011;37855;53.204;6.568;2023-05-07T05:41:36;26.67;;;18.05;;
51800;SDS011;37855;53.204;6.568;2023-05-07T05:44:01;30.80;;;18.40;;
51800;SDS011;37855;53.204;6.568;2023-05-07T05:46:27;26.25;;;17.48;;
51800;SDS011;37855;53.204;6.568;2023-05-07T05:48:53;27.40;;;17.30;;
51800;SDS011;37855;53.204;6.568;2023-05-07T05:51:18;26.45;;;17.23;;
51800;SDS011;37855;53.204;6.568;2023-05-07T05:53:45;24.00;;;15.97;;
51800;SDS011;37855;53.204;6.568;2023-05-07T05:56:11;26.70;;;17.10;;
51800;SDS011;37855;53.204;6.568;2023-05-07T05:58:37;27.63;;;17.17;;
51800;SDS011;37855;53.204;6.568;2023-05-07T06:01:02;27.48;;;18.08;;
51800;SDS011;37855;53.204;6.568;2023-05-07T06:03:28;25.70;;;17.63;;
51800;SDS011;37855;53.204;6.568;2023-05-07T06:05:54;26.10;;;17.13;;
51800;SDS011;37855;53.204;6.568;2023-05-07T06:08:20;26.92;;;17.27;;
51800;SDS011;37855;53.204;6.568;2023-05-07T06:10:45;26.57;;;16.93;;
51800;SDS011;37855;53.204;6.568;2023-05-07T06:13:11;24.23;;;16.00;;
51800;SDS011;37855;53.204;6.568;2023-05-07T06:15:40;23.77;;;16.17;;
51800;SDS011;37855;53.204;6.568;2023-05-07T06:18:05;25.65;;;17.35;;
51800;SDS011;37855;53.204;6.568;2023-05-07T06:20:31;24.67;;;16.83;;
51800;SDS011;37855;53.204;6.568;2023-05-07T06:22:56;25.73;;;15.88;;
51800;SDS011;37855;53.204;6.568;2023-05-07T06:25:22;24.40;;;15.97;;
51800;SDS011;37855;53.204;6.568;2023-05-07T06:27:49;24.73;;;15.95;;
51800;SDS011;37855;53.204;6.568;2023-05-07T06:30:15;23.33;;;15.80;;
51800;SDS011;37855;53.204;6.568;2023-05-07T06:32:40;24.60;;;15.95;;
51800;SDS011;37855;53.204;6.568;2023-05-07T06:35:06;24.80;;;16.47;;
51800;SDS011;37855;53.204;6.568;2023-05-07T06:37:32;24.95;;;16.73;;
51800;SDS011;37855;53.204;6.568;2023-05-07T06:39:58;26.33;;;17.25;;
51800;SDS011;37855;53.204;6.568;2023-05-07T06:42:23;25.63;;;16.23;;
51800;SDS011;37855;53.204;6.568;2023-05-07T06:44:49;24.13;;;16.60;;
51800;SDS011;37855;53.204;6.568;2023-05-07T06:47:15;26.50;;;17.38;;
51800;SDS011;37855;53.204;6.568;2023-05-07T06:49:40;26.50;;;17.03;;
51800;SDS011;37855;53.204;6.568;2023-05-07T06:52:06;26.15;;;17.55;;
51800;SDS011;37855;53.204;6.568;2023-05-07T06:54:32;28.33;;;18.60;;
51800;SDS011;37855;53.204;6.568;2023-05-07T06:56:58;25.63;;;18.05;;
51800;SDS011;37855;53.204;6.568;2023-05-07T06:59:25;26.70;;;18.10;;
51800;SDS011;37855;53.204;6.568;2023-05-07T07:01:50;26.98;;;18.02;;
51800;SDS011;37855;53.204;6.568;2023-05-07T07:04:16;27.83;;;18.65;;
51800;SDS011;37855;53.204;6.568;2023-05-07T07:06:42;25.73;;;16.93;;
51800;SDS011;37855;53.204;6.568;2023-05-07T07:09:07;30.60;;;18.90;;
51800;SDS011;37855;53.204;6.568;2023-05-07T07:11:33;29.00;;;17.60;;
51800;SDS011;37855;53.204;6.568;2023-05-07T07:13:59;25.48;;;16.60;;
51800;SDS011;37855;53.204;6.568;2023-05-07T07:16:24;29.17;;;17.73;;
51800;SDS011;37855;53.204;6.568;2023-05-07T07:18:50;24.42;;;16.38;;
51800;SDS011;37855;53.204;6.568;2023-05-07T07:21:16;23.63;;;16.53;;
51800;SDS011;37855;53.204;6.568;2023-05-07T07:23:42;26.73;;;16.35;;
51800;SDS011;37855;53.204;6.568;2023-05-07T07:26:07;25.80;;;16.13;;
51800;SDS011;37855;53.204;6.568;2023-05-07T07:28:33;26.15;;;15.82;;
51800;SDS011;37855;53.204;6.568;2023-05-07T07:30:59;24.35;;;15.50;;
51800;SDS011;37855;53.204;6.568;2023-05-07T07:33:25;27.33;;;15.90;;
51800;SDS011;37855;53.204;6.568;2023-05-07T07:35:50;27.33;;;17.27;;
51800;SDS011;37855;53.204;6.568;2023-05-07T07:38:16;24.17;;;16.23;;
51800;SDS011;37855;53.204;6.568;2023-05-07T07:40:41;25.53;;;16.37;;
51800;SDS011;37855;53.204;6.568;2023-05-07T07:43:08;26.20;;;16.63;;
51800;SDS011;37855;53.204;6.568;2023-05-07T07:45:34;27.20;;;17.08;;
51800;SDS011;37855;53.204;6.568;2023-05-07T07:48:00;25.80;;;16.47;;
51800;SDS011;37855;53.204;6.568;2023-05-07T07:50:25;26.98;;;17.17;;
51800;SDS011;37855;53.204;6.568;2023-05-07T07:52:51;29.33;;;17.40;;
51800;SDS011;37855;53.204;6.568;2023-05-07T07:55:19;27.00;;;16.58;;
51800;SDS011;37855;53.204;6.568;2023-05-07T07:57:47;30.08;;;16.50;;
51800;SDS011;37855;53.204;6.568;2023-05-07T08:00:14;27.40;;;16.90;;
51800;SDS011;37855;53.204;6.568;2023-05-07T08:02:40;28.23;;;17.50;;
51800;SDS011;37855;53.204;6.568;2023-05-07T08:05:06;27.60;;;17.17;;
51800;SDS011;37855;53.204;6.568;2023-05-07T08:07:32;26.75;;;17.58;;
51800;SDS011;37855;53.204;6.568;2023-05-07T08:09:58;30.03;;;17.50;;
51800;SDS011;37855;53.204;6.568;2023-05-07T08:12:23;27.60;;;17.23;;
51800;SDS011;37855;53.204;6.568;2023-05-07T08:14:49;29.27;;;17.73;;
51800;SDS011;37855;53.204;6.568;2023-05-07T08:17:15;27.35;;;17.20;;
51800;SDS011;37855;53.204;6.568;2023-05-07T08:19:41;28.30;;;17.40;;
51800;SDS011;37855;53.204;6.568;2023-05-07T08:22:08;28.63;;;17.52;;
51800;SDS011;37855;53.204;6.568;2023-05-07T08:24:35;26.65;;;16.88;;
51800;SDS011;37855;53.204;6.568;2023-05-07T08:27:01;25.42;;;16.65;;
51800;SDS011;37855;53.204;6.568;2023-05-07T08:29:27;27.37;;;17.23;;
51800;SDS011;37855;53.204;6.568;2023-05-07T08:31:53;27.70;;;16.95;;
51800;SDS011;37855;53.204;6.568;2023-05-07T08:34:19;27.17;;;17.07;;
51800;SDS011;37855;53.204;6.568;2023-05-07T08:36:44;27.58;;;17.17;;
51800;SDS011;37855;53.204;6.568;2023-05-07T08:39:13;25.48;;;16.95;;
51800;SDS011;37855;53.204;6.568;2023-05-07T08:41:42;25.30;;;17.23;;
51800;SDS011;37855;53.204;6.568;2023-05-07T08:44:13;25.67;;;17.38;;
51800;SDS011;37855;53.204;6.568;2023-05-07T08:46:41;25.33;;;16.47;;
51800;SDS011;37855;53.204;6.568;2023-05-07T08:49:07;26.80;;;17.30;;
51800;SDS011;37855;53.204;6.568;2023-05-07T08:51:33;28.58;;;17.00;;
51800;SDS011;37855;53.204;6.568;2023-05-07T08:54:00;26.00;;;17.10;;
51800;SDS011;37855;53.204;6.568;2023-05-07T08:56:26;29.10;;;17.25;;
51800;SDS011;37855;53.204;6.568;2023-05-07T08:58:52;24.92;;;15.98;;
51800;SDS011;37855;53.204;6.568;2023-05-07T09:01:21;27.63;;;18.02;;
51800;SDS011;37855;53.204;6.568;2023-05-07T09:03:47;27.07;;;17.57;;
51800;SDS011;37855;53.204;6.568;2023-05-07T09:06:14;25.55;;;16.73;;
51800;SDS011;37855;53.204;6.568;2023-05-07T09:08:40;26.30;;;16.85;;
51800;SDS011;37855;53.204;6.568;2023-05-07T09:11:06;26.23;;;16.73;;
51800;SDS011;37855;53.204;6.568;2023-05-07T09:13:31;26.65;;;16.38;;
51800;SDS011;37855;53.204;6.568;2023-05-07T09:15:57;26.27;;;16.60;;
51800;SDS011;37855;53.204;6.568;2023-05-07T09:18:23;25.63;;;16.00;;
51800;SDS011;37855;53.204;6.568;2023-05-07T09:20:50;26.33;;;17.30;;
51800;SDS011;37855;53.204;6.568;2023-05-07T09:23:16;29.13;;;17.67;;
51800;SDS011;37855;53.204;6.568;2023-05-07T09:25:41;25.93;;;16.90;;
51800;SDS011;37855;53.204;6.568;2023-05-07T09:28:07;26.75;;;17.02;;
51800;SDS011;37855;53.204;6.568;2023-05-07T09:30:35;26.05;;;17.23;;
51800;SDS011;37855;53.204;6.568;2023-05-07T09:33:02;26.13;;;17.53;;
51800;SDS011;37855;53.204;6.568;2023-05-07T09:35:29;26.15;;;17.35;;
51800;SDS011;37855;53.204;6.568;2023-05-07T09:37:59;26.25;;;17.63;;
51800;SDS011;37855;53.204;6.568;2023-05-07T09:40:27;27.27;;;16.92;;
51800;SDS011;37855;53.204;6.568;2023-05-07T09:42:53;26.42;;;17.13;;
51800;SDS011;37855;53.204;6.568;2023-05-07T09:45:22;26.70;;;17.37;;
51800;SDS011;37855;53.204;6.568;2023-05-07T09:47:53;30.23;;;18.88;;
51800;SDS011;37855;53.204;6.568;2023-05-07T09:50:22;28.23;;;17.38;;
51800;SDS011;37855;53.204;6.568;2023-05-07T09:52:57;25.42;;;16.95;;
51800;SDS011;37855;53.204;6.568;2023-05-07T09:55:23;24.97;;;16.77;;
51800;SDS011;37855;53.204;6.568;2023-05-07T09:57:50;25.83;;;16.55;;
51800;SDS011;37855;53.204;6.568;2023-05-07T10:00:20;25.77;;;16.42;;
51800;SDS011;37855;53.204;6.568;2023-05-07T10:02:51;26.20;;;16.25;;
51800;SDS011;37855;53.204;6.568;2023-05-07T10:05:18;26.02;;;16.67;;
51800;SDS011;37855;53.204;6.568;2023-05-07T10:07:47;24.73;;;16.27;;
51800;SDS011;37855;53.204;6.568;2023-05-07T10:10:14;28.27;;;17.13;;
51800;SDS011;37855;53.204;6.568;2023-05-07T10:12:41;21.45;;;13.65;;
51800;SDS011;37855;53.204;6.568;2023-05-07T10:15:10;26.50;;;16.17;;
51800;SDS011;37855;53.204;6.568;2023-05-07T10:17:36;24.38;;;17.00;;
51800;SDS011;37855;53.204;6.568;2023-05-07T10:20:04;27.83;;;15.93;;
51800;SDS011;37855;53.204;6.568;2023-05-07T10:22:43;24.17;;;15.35;;
51800;SDS011;37855;53.204;6.568;2023-05-07T10:25:14;22.98;;;15.27;;
51800;SDS011;37855;53.204;6.568;2023-05-07T10:27:46;24.65;;;15.90;;
51800;SDS011;37855;53.204;6.568;2023-05-07T10:31:17;25.05;;;16.38;;
51800;SDS011;37855;53.204;6.568;2023-05-07T10:33:27;23.90;;;14.93;;
51800;SDS011;37855;53.204;6.568;2023-05-07T10:35:55;24.63;;;15.30;;
51800;SDS011;37855;53.204;6.568;2023-05-07T10:38:25;24.55;;;15.95;;
51800;SDS011;37855;53.204;6.568;2023-05-07T10:40:52;24.20;;;15.18;;
51800;SDS011;37855;53.204;6.568;2023-05-07T10:43:21;23.10;;;15.73;;
51800;SDS011;37855;53.204;6.568;2023-05-07T10:49:23;24.67;;;15.73;;
51800;SDS011;37855;53.204;6.568;2023-05-07T10:51:31;22.08;;;14.98;;
51800;SDS011;37855;53.204;6.568;2023-05-07T10:56:39;21.73;;;15.20;;
51800;SDS011;37855;53.204;6.568;2023-05-07T11:01:55;23.20;;;14.77;;
51800;SDS011;37855;53.204;6.568;2023-05-07T11:04:23;22.58;;;15.30;;
51800;SDS011;37855;53.204;6.568;2023-05-07T11:12:16;19.80;;;13.93;;
51800;SDS011;37855;53.204;6.568;2023-05-07T11:15:01;22.17;;;14.18;;
51800;SDS011;37855;53.204;6.568;2023-05-07T11:17:30;21.40;;;14.82;;
51800;SDS011;37855;53.204;6.568;2023-05-07T11:19:59;21.13;;;14.15;;
51800;SDS011;37855;53.204;6.568;2023-05-07T11:24:59;20.60;;;14.93;;
51800;SDS011;37855;53.204;6.568;2023-05-07T11:27:26;19.83;;;15.27;;
51800;SDS011;37855;53.204;6.568;2023-05-07T11:29:52;19.88;;;13.68;;
51800;SDS011;37855;53.204;6.568;2023-05-07T11:32:24;19.38;;;13.73;;
51800;SDS011;37855;53.204;6.568;2023-05-07T11:34:51;17.60;;;12.67;;
51800;SDS011;37855;53.204;6.568;2023-05-07T11:37:19;19.38;;;14.18;;
51800;SDS011;37855;53.204;6.568;2023-05-07T11:39:45;17.38;;;13.18;;
51800;SDS011;37855;53.204;6.568;2023-05-07T11:44:59;18.80;;;12.90;;
51800;SDS011;37855;53.204;6.568;2023-05-07T11:47:25;17.38;;;13.07;;
51800;SDS011;37855;53.204;6.568;2023-05-07T11:49:52;17.90;;;12.73;;
51800;SDS011;37855;53.204;6.568;2023-05-07T11:52:19;17.58;;;13.68;;
51800;SDS011;37855;53.204;6.568;2023-05-07T11:54:53;18.17;;;12.85;;
51800;SDS011;37855;53.204;6.568;2023-05-07T11:57:20;19.40;;;13.50;;
51800;SDS011;37855;53.204;6.568;2023-05-07T11:59:46;18.17;;;13.68;;
51800;SDS011;37855;53.204;6.568;2023-05-07T12:02:17;19.45;;;13.75;;
51800;SDS011;37855;53.204;6.568;2023-05-07T12:04:43;17.38;;;13.38;;
51800;SDS011;37855;53.204;6.568;2023-05-07T12:07:16;19.83;;;14.55;;
51800;SDS011;37855;53.204;6.568;2023-05-07T12:09:43;18.93;;;12.63;;
51800;SDS011;37855;53.204;6.568;2023-05-07T12:12:10;18.10;;;13.55;;
51800;SDS011;37855;53.204;6.568;2023-05-07T12:14:42;18.95;;;13.68;;
51800;SDS011;37855;53.204;6.568;2023-05-07T12:17:09;17.63;;;13.15;;
51800;SDS011;37855;53.204;6.568;2023-05-07T12:19:35;17.00;;;12.63;;
51800;SDS011;37855;53.204;6.568;2023-05-07T12:22:02;16.73;;;13.23;;
51800;SDS011;37855;53.204;6.568;2023-05-07T12:24:42;16.48;;;12.85;;
51800;SDS011;37855;53.204;6.568;2023-05-07T12:27:08;17.98;;;12.82;;
51800;SDS011;37855;53.204;6.568;2023-05-07T12:29:34;16.80;;;13.20;;
51800;SDS011;37855;53.204;6.568;2023-05-07T12:32:00;17.80;;;13.63;;
51800;SDS011;37855;53.204;6.568;2023-05-07T12:34:26;17.27;;;12.63;;
51800;SDS011;37855;53.204;6.568;2023-05-07T12:36:51;16.47;;;11.90;;
51800;SDS011;37855;53.204;6.568;2023-05-07T12:39:18;18.65;;;12.93;;
51800;SDS011;37855;53.204;6.568;2023-05-07T12:41:53;17.13;;;13.15;;
51800;SDS011;37855;53.204;6.568;2023-05-07T12:44:23;17.35;;;12.55;;
51800;SDS011;37855;53.204;6.568;2023-05-07T12:47:02;19.63;;;11.63;;
51800;SDS011;37855;53.204;6.568;2023-05-07T12:49:28;18.05;;;14.20;;
51800;SDS011;37855;53.204;6.568;2023-05-07T12:51:54;15.57;;;12.20;;
51800;SDS011;37855;53.204;6.568;2023-05-07T12:54:30;17.60;;;13.52;;
51800;SDS011;37855;53.204;6.568;2023-05-07T12:57:04;20.57;;;13.03;;
51800;SDS011;37855;53.204;6.568;2023-05-07T12:59:40;17.83;;;12.85;;
51800;SDS011;37855;53.204;6.568;2023-05-07T13:02:07;16.33;;;12.65;;
51800;SDS011;37855;53.204;6.568;2023-05-07T13:04:34;12.57;;;9.35;;
51800;SDS011;37855;53.204;6.568;2023-05-07T13:07:00;16.52;;;10.13;;
51800;SDS011;37855;53.204;6.568;2023-05-07T13:09:26;14.17;;;10.97;;
51800;SDS011;37855;53.204;6.568;2023-05-07T13:11:54;16.98;;;12.07;;
51800;SDS011;37855;53.204;6.568;2023-05-07T13:14:20;20.75;;;11.13;;
51800;SDS011;37855;53.204;6.568;2023-05-07T13:16:48;17.42;;;11.43;;
51800;SDS011;37855;53.204;6.568;2023-05-07T13:19:17;18.60;;;10.17;;
51800;SDS011;37855;53.204;6.568;2023-05-07T13:21:42;14.65;;;9.80;;
51800;SDS011;37855;53.204;6.568;2023-05-07T13:24:08;16.20;;;13.07;;
51800;SDS011;37855;53.204;6.568;2023-05-07T13:26:34;14.20;;;10.40;;
51800;SDS011;37855;53.204;6.568;2023-05-07T13:29:00;17.97;;;10.77;;
51800;SDS011;37855;53.204;6.568;2023-05-07T13:31:28;13.48;;;9.07;;
51800;SDS011;37855;53.204;6.568;2023-05-07T13:33:53;13.32;;;9.70;;
51800;SDS011;37855;53.204;6.568;2023-05-07T13:36:21;13.93;;;9.88;;
51800;SDS011;37855;53.204;6.568;2023-05-07T13:38:47;14.80;;;11.37;;
51800;SDS011;37855;53.204;6.568;2023-05-07T13:41:12;15.43;;;11.10;;
51800;SDS011;37855;53.204;6.568;2023-05-07T13:43:39;13.05;;;10.35;;
51800;SDS011;37855;53.204;6.568;2023-05-07T13:46:04;14.30;;;11.90;;
51800;SDS011;37855;53.204;6.568;2023-05-07T13:48:30;38.80;;;13.37;;
51800;SDS011;37855;53.204;6.568;2023-05-07T13:50:56;15.48;;;10.05;;
51800;SDS011;37855;53.204;6.568;2023-05-07T13:53:22;15.63;;;9.53;;
51800;SDS011;37855;53.204;6.568;2023-05-07T13:55:48;14.25;;;7.40;;
51800;SDS011;37855;53.204;6.568;2023-05-07T13:58:13;13.13;;;9.02;;
51800;SDS011;37855;53.204;6.568;2023-05-07T14:00:39;12.73;;;9.77;;
51800;SDS011;37855;53.204;6.568;2023-05-07T14:03:05;11.40;;;8.00;;
51800;SDS011;37855;53.204;6.568;2023-05-07T14:05:30;11.57;;;8.83;;
51800;SDS011;37855;53.204;6.568;2023-05-07T14:07:57;13.70;;;8.80;;
51800;SDS011;37855;53.204;6.568;2023-05-07T14:10:23;15.05;;;10.20;;
51800;SDS011;37855;53.204;6.568;2023-05-07T14:12:49;12.63;;;9.83;;
51800;SDS011;37855;53.204;6.568;2023-05-07T14:15:15;14.65;;;10.00;;
51800;SDS011;37855;53.204;6.568;2023-05-07T14:17:44;14.88;;;9.73;;
51800;SDS011;37855;53.204;6.568;2023-05-07T14:20:10;13.27;;;8.97;;
51800;SDS011;37855;53.204;6.568;2023-05-07T14:22:36;13.93;;;9.00;;
51800;SDS011;37855;53.204;6.568;2023-05-07T14:25:02;13.77;;;8.85;;
51800;SDS011;37855;53.204;6.568;2023-05-07T14:27:28;14.25;;;10.20;;
51800;SDS011;37855;53.204;6.568;2023-05-07T14:29:54;17.17;;;9.43;;
51800;SDS011;37855;53.204;6.568;2023-05-07T14:32:20;12.15;;;9.70;;
51800;SDS011;37855;53.204;6.568;2023-05-07T14:34:46;14.38;;;10.18;;
51800;SDS011;37855;53.204;6.568;2023-05-07T14:37:12;16.50;;;9.37;;
51800;SDS011;37855;53.204;6.568;2023-05-07T14:39:38;13.45;;;9.77;;
51800;SDS011;37855;53.204;6.568;2023-05-07T14:42:04;15.13;;;10.25;;